createdAt,value
2022-09-23T00:01:15.271Z,26.20
2022-09-23T00:03:44.260Z,26.21
2022-09-23T00:06:13.542Z,26.23
2022-09-23T00:08:41.877Z,26.19
2022-09-23T00:11:14.183Z,26.16
2022-09-23T00:13:43.259Z,26.15
2022-09-23T00:16:12.759Z,26.10
2022-09-23T00:18:40.919Z,26.06
2022-09-23T00:21:11.106Z,26.05
2022-09-23T00:23:39.625Z,26.02
2022-09-23T00:26:12.062Z,25.97
2022-09-23T00:28:39.944Z,25.96
2022-09-23T00:31:09.597Z,25.91
2022-09-23T00:33:37.898Z,25.85
2022-09-23T00:36:07.320Z,25.82
2022-09-23T00:38:35.641Z,25.77
2022-09-23T00:41:07.152Z,25.73
2022-09-23T00:43:39.754Z,25.68
2022-09-23T00:46:09.438Z,25.60
2022-09-23T00:48:39.813Z,25.53
2022-09-23T00:51:09.339Z,25.50
2022-09-23T00:53:37.405Z,25.46
2022-09-23T00:56:08.431Z,25.31
2022-09-23T00:58:38.189Z,25.20
2022-09-23T01:01:06.817Z,25.13
2022-09-23T01:03:34.962Z,24.92
2022-09-23T01:06:03.119Z,24.77
2022-09-23T01:08:32.267Z,24.58
2022-09-23T01:11:07.140Z,24.40
2022-09-23T01:13:50.610Z,24.25
2022-09-23T01:16:23.647Z,24.10
2022-09-23T01:18:51.625Z,23.96
2022-09-23T01:21:22.497Z,23.85
2022-09-23T01:24:09.550Z,23.74
2022-09-23T01:27:00.239Z,23.60
2022-09-23T01:29:30.945Z,23.49
2022-09-23T01:31:58.840Z,23.39
2022-09-23T01:34:33.390Z,23.28
2022-09-23T01:37:10.508Z,23.13
2022-09-23T01:39:41.400Z,22.99
2022-09-23T01:42:09.499Z,22.92
2022-09-23T01:44:44.104Z,22.79
2022-09-23T01:47:16.745Z,22.70
2022-09-23T01:50:26.013Z,22.64
2022-09-23T01:52:56.442Z,22.60
2022-09-23T01:55:28.516Z,22.55
2022-09-23T01:58:06.185Z,22.44
2022-09-23T02:00:36.920Z,22.36
2022-09-23T02:03:16.759Z,22.26
2022-09-23T02:05:48.732Z,22.15
2022-09-23T02:08:20.401Z,22.05
2022-09-23T02:10:50.505Z,21.98
2022-09-23T02:13:25.713Z,21.94
2022-09-23T02:15:56.590Z,21.87
2022-09-23T02:18:29.704Z,21.81
2022-09-23T02:21:01.384Z,21.76
2022-09-23T02:23:33.338Z,21.68
2022-09-23T02:26:08.420Z,21.60
2022-09-23T02:28:42.352Z,21.56
2022-09-23T02:31:16.265Z,21.55
2022-09-23T02:34:07.345Z,21.52
2022-09-23T02:36:41.659Z,21.43
2022-09-23T02:39:12.748Z,21.37
2022-09-23T02:41:59.280Z,21.31
2022-09-23T02:44:29.070Z,21.25
2022-09-23T02:46:57.833Z,21.21
2022-09-23T02:49:30.496Z,21.19
2022-09-23T02:52:01.238Z,21.17
2022-09-23T02:54:30.340Z,21.12
2022-09-23T02:56:59.145Z,21.11
2022-09-23T02:59:27.140Z,21.07
2022-09-23T03:01:57.905Z,21.05
2022-09-23T03:04:32.585Z,21.03
2022-09-23T03:07:03.468Z,21.00
2022-09-23T03:09:35.115Z,21.01
2022-09-23T03:12:16.590Z,20.99
2022-09-23T03:15:04.590Z,20.96
2022-09-23T03:17:44.744Z,20.95
2022-09-23T03:20:35.245Z,20.93
2022-09-23T03:23:07.625Z,20.89
2022-09-23T03:25:37.864Z,20.87
2022-09-23T03:28:06.640Z,20.87
2022-09-23T03:30:37.664Z,20.83
2022-09-23T03:33:07.139Z,20.83
2022-09-23T03:35:59.941Z,20.82
2022-09-23T03:38:31.300Z,20.79
2022-09-23T03:41:00.664Z,20.75
2022-09-23T03:43:30.012Z,20.74
2022-09-23T03:45:58.748Z,20.74
2022-09-23T03:48:26.819Z,20.75
2022-09-23T03:50:54.724Z,20.77
2022-09-23T03:53:23.079Z,20.76
2022-09-23T03:55:51.104Z,20.76
2022-09-23T03:58:18.984Z,20.77
2022-09-23T04:00:47.614Z,20.74
2022-09-23T04:03:15.629Z,20.72
2022-09-23T04:05:43.948Z,20.70
2022-09-23T04:08:11.959Z,20.68
2022-09-23T04:10:41.875Z,20.64
2022-09-23T04:13:10.506Z,20.61
2022-09-23T04:15:38.559Z,20.58
2022-09-23T04:18:06.506Z,20.58
2022-09-23T04:20:34.460Z,20.55
2022-09-23T04:23:02.346Z,20.52
2022-09-23T04:25:30.324Z,20.48
2022-09-23T04:27:58.514Z,20.44
2022-09-23T04:30:26.504Z,20.38
2022-09-23T04:32:54.518Z,20.33
2022-09-23T04:35:22.485Z,20.23
2022-09-23T04:37:50.504Z,20.15
2022-09-23T04:40:18.527Z,20.08
2022-09-23T04:42:46.487Z,20.01
2022-09-23T04:45:14.419Z,19.94
2022-09-23T04:47:42.342Z,19.90
2022-09-23T04:50:10.659Z,19.84
2022-09-23T04:52:38.620Z,19.79
2022-09-23T04:55:11.111Z,19.73
2022-09-23T04:57:39.619Z,19.69
2022-09-23T05:00:07.944Z,19.65
2022-09-23T05:02:36.519Z,19.58
2022-09-23T05:05:04.888Z,19.53
2022-09-23T05:07:32.745Z,19.48
2022-09-23T05:10:00.593Z,19.41
2022-09-23T05:12:28.436Z,19.36
2022-09-23T05:14:56.901Z,19.31
2022-09-23T05:17:24.910Z,19.23
2022-09-23T05:19:52.904Z,19.16
2022-09-23T05:22:21.059Z,19.12
2022-09-23T05:24:48.913Z,19.12
2022-09-23T05:27:16.745Z,19.10
2022-09-23T05:29:45.079Z,19.07
2022-09-23T05:32:12.917Z,19.01
2022-09-23T05:34:40.748Z,18.93
2022-09-23T05:37:08.740Z,18.90
2022-09-23T05:39:36.720Z,18.84
2022-09-23T05:42:05.037Z,18.81
2022-09-23T05:44:33.081Z,18.76
2022-09-23T05:47:01.089Z,18.72
2022-09-23T05:49:48.287Z,18.68
2022-09-23T05:52:18.220Z,18.63
2022-09-23T05:54:46.134Z,18.61
2022-09-23T05:57:14.153Z,18.57
2022-09-23T05:59:43.480Z,18.49
2022-09-23T06:02:11.475Z,18.45
2022-09-23T06:04:39.409Z,18.42
2022-09-23T06:07:07.372Z,18.37
2022-09-23T06:09:36.789Z,18.32
2022-09-23T06:12:05.706Z,18.29
2022-09-23T06:14:33.533Z,18.27
2022-09-23T06:17:01.539Z,18.24
2022-09-23T06:19:29.538Z,18.22
2022-09-23T06:21:57.399Z,18.18
2022-09-23T06:24:30.859Z,18.19
2022-09-23T06:26:59.440Z,18.14
2022-09-23T06:29:27.405Z,18.11
2022-09-23T06:31:55.343Z,18.06
2022-09-23T06:34:23.305Z,18.01
2022-09-23T06:36:52.583Z,17.99
2022-09-23T06:39:20.426Z,17.96
2022-09-23T06:41:48.559Z,17.90
2022-09-23T06:44:16.579Z,17.85
2022-09-23T06:46:44.906Z,17.82
2022-09-23T06:49:14.233Z,17.76
2022-09-23T06:51:42.495Z,17.73
2022-09-23T06:54:11.947Z,17.73
2022-09-23T06:56:40.587Z,17.73
2022-09-23T06:59:10.953Z,17.72
2022-09-23T07:01:39.326Z,17.70
2022-09-23T07:04:08.391Z,17.71
2022-09-23T07:06:36.422Z,17.66
2022-09-23T07:09:05.023Z,17.62
2022-09-23T07:11:33.061Z,17.61
2022-09-23T07:14:01.062Z,17.59
2022-09-23T07:16:29.109Z,17.56
2022-09-23T07:18:57.219Z,17.52
2022-09-23T07:21:25.218Z,17.51
2022-09-23T07:23:53.068Z,17.48
2022-09-23T07:26:21.544Z,17.43
2022-09-23T07:28:49.549Z,17.39
2022-09-23T07:31:29.633Z,17.37
2022-09-23T07:34:03.440Z,17.38
2022-09-23T07:36:36.181Z,17.34
2022-09-23T07:39:04.560Z,17.31
2022-09-23T07:41:33.140Z,17.27
2022-09-23T07:44:04.001Z,17.23
2022-09-23T07:46:32.976Z,17.20
2022-09-23T07:49:04.235Z,17.19
2022-09-23T07:51:36.407Z,17.15
2022-09-23T07:54:08.965Z,17.11
2022-09-23T07:56:37.865Z,17.09
2022-09-23T07:59:06.600Z,17.08
2022-09-23T08:01:36.760Z,17.06
2022-09-23T08:04:06.666Z,17.07
2022-09-23T08:06:35.139Z,17.05
2022-09-23T08:09:03.342Z,17.05
2022-09-23T08:11:32.260Z,17.01
2022-09-23T08:14:00.120Z,16.98
2022-09-23T08:16:28.148Z,16.95
2022-09-23T08:18:56.115Z,16.94
2022-09-23T08:21:26.459Z,16.95
2022-09-23T08:23:54.344Z,16.91
2022-09-23T08:26:22.628Z,16.88
2022-09-23T08:28:54.724Z,16.83
2022-09-23T08:31:23.724Z,16.80
2022-09-23T08:33:56.763Z,16.76
2022-09-23T08:36:25.239Z,16.71
2022-09-23T08:38:53.161Z,16.69
2022-09-23T08:41:28.902Z,16.68
2022-09-23T08:43:59.177Z,16.65
2022-09-23T08:46:29.392Z,16.63
2022-09-23T08:48:57.820Z,16.60
2022-09-23T08:51:32.110Z,16.58
2022-09-23T08:54:01.064Z,16.56
2022-09-23T08:56:30.031Z,16.56
2022-09-23T08:59:10.411Z,16.53
2022-09-23T09:01:43.230Z,16.48
2022-09-23T09:04:28.419Z,16.45
2022-09-23T09:07:32.207Z,16.41
2022-09-23T09:10:04.071Z,16.38
2022-09-23T09:12:35.120Z,16.35
2022-09-23T09:15:08.422Z,16.35
2022-09-23T09:17:39.153Z,16.32
2022-09-23T09:20:21.039Z,16.32
2022-09-23T09:22:58.342Z,16.32
2022-09-23T09:25:28.720Z,16.33
2022-09-23T09:27:59.439Z,16.31
2022-09-23T09:30:29.184Z,16.28
2022-09-23T09:33:03.469Z,16.26
2022-09-23T09:35:38.659Z,16.23
2022-09-23T09:38:09.319Z,16.19
2022-09-23T09:40:44.025Z,16.15
2022-09-23T09:43:12.104Z,16.08
2022-09-23T09:46:05.381Z,16.08
2022-09-23T09:48:39.478Z,16.05
2022-09-23T09:51:19.749Z,16.03
2022-09-23T09:53:47.729Z,16.03
2022-09-23T09:56:17.393Z,16.02
2022-09-23T09:58:47.892Z,16.01
2022-09-23T10:01:29.845Z,16.00
2022-09-23T10:03:59.567Z,15.98
2022-09-23T10:06:33.910Z,15.98
2022-09-23T10:09:20.205Z,15.97
2022-09-23T10:12:05.383Z,15.96
2022-09-23T10:14:33.322Z,15.92
2022-09-23T10:17:06.467Z,15.89
2022-09-23T10:19:36.957Z,15.87
2022-09-23T10:22:06.536Z,15.86
2022-09-23T10:24:37.965Z,15.84
2022-09-23T10:27:10.575Z,15.81
2022-09-23T10:29:40.202Z,15.78
2022-09-23T10:32:31.097Z,15.75
2022-09-23T10:34:59.079Z,15.73
2022-09-23T10:37:35.025Z,15.69
2022-09-23T10:40:31.278Z,15.66
2022-09-23T10:43:36.083Z,15.61
2022-09-23T10:46:25.147Z,15.58
2022-09-23T10:48:53.014Z,15.55
2022-09-23T10:51:28.373Z,15.51
2022-09-23T10:54:07.096Z,15.49
2022-09-23T10:56:44.218Z,15.45
2022-09-23T10:59:41.175Z,15.43
2022-09-23T11:02:28.986Z,15.42
2022-09-23T11:05:16.218Z,15.43
2022-09-23T11:07:53.454Z,15.38
2022-09-23T11:10:35.205Z,15.37
2022-09-23T11:13:15.421Z,15.34
2022-09-23T11:15:55.915Z,15.29
2022-09-23T11:18:23.767Z,15.29
2022-09-23T11:21:07.597Z,15.26
2022-09-23T11:23:44.881Z,15.24
2022-09-23T11:26:33.393Z,15.22
2022-09-23T11:29:04.564Z,15.21
2022-09-23T11:31:38.474Z,15.19
2022-09-23T11:34:21.187Z,15.14
2022-09-23T11:36:55.112Z,15.09
2022-09-23T11:39:37.146Z,15.03
2022-09-23T11:42:10.530Z,15.00
2022-09-23T11:44:42.149Z,14.95
2022-09-23T11:47:09.975Z,14.93
2022-09-23T11:49:47.425Z,14.95
2022-09-23T11:52:22.796Z,14.91
2022-09-23T11:54:55.525Z,14.90
2022-09-23T11:57:44.964Z,14.85
2022-09-23T12:00:16.848Z,14.83
2022-09-23T12:03:05.990Z,14.81
2022-09-23T12:05:40.828Z,14.82
2022-09-23T12:08:24.709Z,14.80
2022-09-23T12:10:52.709Z,14.74
2022-09-23T12:13:41.637Z,14.72
2022-09-23T12:16:27.304Z,14.69
2022-09-23T12:19:01.991Z,14.70
2022-09-23T12:24:44.233Z,14.64
2022-09-23T12:27:23.916Z,14.59
2022-09-23T12:30:02.325Z,14.56
2022-09-23T12:32:31.278Z,14.53
2022-09-23T12:35:01.133Z,14.52
2022-09-23T12:37:33.043Z,14.50
2022-09-23T12:40:06.227Z,14.47
2022-09-23T12:42:34.594Z,14.49
2022-09-23T12:45:35.563Z,14.48
2022-09-23T12:48:05.359Z,14.46
2022-09-23T12:50:52.242Z,14.45
2022-09-23T12:53:35.614Z,14.42
2022-09-23T12:56:15.761Z,14.40
2022-09-23T12:58:44.535Z,14.38
2022-09-23T13:01:15.774Z,14.37
2022-09-23T13:04:05.775Z,14.32
2022-09-23T13:06:46.458Z,14.28
2022-09-23T13:09:16.563Z,14.27
2022-09-23T13:11:46.317Z,14.28
2022-09-23T13:14:16.878Z,14.27
2022-09-23T13:16:46.600Z,14.25
2022-09-23T13:19:26.821Z,14.21
2022-09-23T13:21:54.797Z,14.19
2022-09-23T13:24:32.018Z,14.17
2022-09-23T13:27:02.963Z,14.14
2022-09-23T13:29:43.608Z,14.13
2022-09-23T13:32:16.107Z,14.11
2022-09-23T13:34:45.204Z,14.06
2022-09-23T13:37:23.059Z,14.05
2022-09-23T13:39:51.429Z,14.04
2022-09-23T13:42:28.263Z,14.04
2022-09-23T13:44:58.495Z,14.04
2022-09-23T13:47:28.519Z,14.03
2022-09-23T13:49:56.739Z,14.02
2022-09-23T13:52:27.458Z,14.00
2022-09-23T13:54:55.580Z,13.98
2022-09-23T13:57:33.931Z,13.97
2022-09-23T14:00:02.969Z,13.95
2022-09-23T14:02:31.226Z,13.95
2022-09-23T14:04:59.948Z,13.92
2022-09-23T14:07:28.042Z,13.90
2022-09-23T14:09:56.892Z,13.91
2022-09-23T14:12:24.842Z,13.91
2022-09-23T14:14:55.324Z,13.93
2022-09-23T14:17:26.328Z,13.92
2022-09-23T14:19:54.329Z,13.93
2022-09-23T14:22:26.524Z,13.94
2022-09-23T14:24:55.450Z,13.98
2022-09-23T14:27:29.484Z,13.99
2022-09-23T14:29:57.530Z,14.04
2022-09-23T14:32:28.411Z,14.07
2022-09-23T14:35:07.626Z,14.09
2022-09-23T14:38:03.787Z,14.12
2022-09-23T14:40:51.901Z,14.17
2022-09-23T14:43:30.178Z,14.19
2022-09-23T14:45:59.352Z,14.24
2022-09-23T14:48:27.427Z,14.28
2022-09-23T14:51:02.653Z,14.34
2022-09-23T14:53:38.654Z,14.39
2022-09-23T14:56:09.702Z,14.45
2022-09-23T14:58:49.505Z,14.50
2022-09-23T15:01:25.714Z,14.57
2022-09-23T15:03:54.651Z,14.65
2022-09-23T15:06:24.280Z,14.75
2022-09-23T15:08:53.095Z,14.83
2022-09-23T15:11:22.792Z,14.93
2022-09-23T15:13:53.690Z,15.02
2022-09-23T15:16:27.348Z,15.13
2022-09-23T15:18:57.061Z,15.25
2022-09-23T15:21:25.991Z,15.36
2022-09-23T15:23:55.959Z,15.50
2022-09-23T15:26:24.896Z,15.66
2022-09-23T15:28:56.897Z,15.80
2022-09-23T15:31:28.149Z,15.93
2022-09-23T15:33:56.914Z,16.01
2022-09-23T15:36:29.481Z,16.10
2022-09-23T15:39:02.454Z,16.21
2022-09-23T15:41:30.989Z,16.28
2022-09-23T15:43:59.219Z,16.36
2022-09-23T15:46:29.132Z,16.44
2022-09-23T15:49:02.326Z,16.53
2022-09-23T15:51:30.361Z,16.64
2022-09-23T15:53:58.721Z,16.73
2022-09-23T15:56:28.055Z,16.85
2022-09-23T15:58:55.949Z,16.99
2022-09-23T16:01:32.405Z,17.08
2022-09-23T16:04:02.421Z,17.19
2022-09-23T16:06:30.497Z,17.27
2022-09-23T16:08:58.533Z,17.36
2022-09-23T16:11:28.584Z,17.51
2022-09-23T16:13:56.538Z,17.64
2022-09-23T16:16:24.580Z,17.74
2022-09-23T16:18:52.446Z,17.83
2022-09-23T16:21:22.360Z,17.94
2022-09-23T16:23:50.983Z,18.04
2022-09-23T16:26:23.638Z,18.16
2022-09-23T16:28:52.743Z,18.27
2022-09-23T16:31:21.257Z,18.34
2022-09-23T16:33:52.239Z,18.39
2022-09-23T16:36:29.814Z,18.47
2022-09-23T16:38:57.863Z,18.55
2022-09-23T16:41:35.145Z,18.64
2022-09-23T16:44:05.385Z,18.75
2022-09-23T16:46:33.439Z,18.84
2022-09-23T16:49:01.906Z,18.96
2022-09-23T16:51:31.304Z,19.07
2022-09-23T16:54:00.280Z,19.23
2022-09-23T16:56:29.422Z,19.36
2022-09-23T16:58:57.552Z,19.49
2022-09-23T17:01:45.145Z,19.59
2022-09-23T17:04:14.457Z,19.71
2022-09-23T17:06:50.939Z,19.83
2022-09-23T17:09:20.902Z,19.90
2022-09-23T17:11:53.983Z,19.98
2022-09-23T17:14:22.022Z,20.10
2022-09-23T17:16:50.055Z,20.16
2022-09-23T17:19:18.020Z,20.23
2022-09-23T17:21:45.885Z,20.30
2022-09-23T17:24:13.861Z,20.38
2022-09-23T17:26:41.818Z,20.48
2022-09-23T17:29:10.823Z,20.57
2022-09-23T17:31:40.297Z,20.71
2022-09-23T17:34:08.196Z,20.82
2022-09-23T17:36:36.109Z,20.92
2022-09-23T17:39:03.967Z,21.03
2022-09-23T17:41:31.870Z,21.13
2022-09-23T17:44:01.405Z,21.23
2022-09-23T17:46:31.111Z,21.39
2022-09-23T17:48:59.124Z,21.47
2022-09-23T17:51:27.125Z,21.58
2022-09-23T17:53:55.119Z,21.73
2022-09-23T17:56:27.282Z,21.85
2022-09-23T17:58:55.470Z,21.95
2022-09-23T18:01:25.235Z,22.12
2022-09-23T18:03:56.308Z,22.29
2022-09-23T18:06:25.320Z,22.37
2022-09-23T18:08:53.363Z,22.42
2022-09-23T18:11:25.584Z,22.45
2022-09-23T18:13:54.940Z,22.56
2022-09-23T18:16:24.625Z,22.69
2022-09-23T18:18:56.700Z,22.81
2022-09-23T18:21:26.509Z,22.95
2022-09-23T18:23:59.856Z,23.06
2022-09-23T18:26:35.180Z,23.16
2022-09-23T18:29:03.488Z,23.28
2022-09-23T18:31:36.182Z,23.36
2022-09-23T18:34:05.914Z,23.49
2022-09-23T18:36:34.807Z,23.64
2022-09-23T18:39:02.825Z,23.73
2022-09-23T18:41:30.990Z,23.82
2022-09-23T18:43:59.150Z,23.93
2022-09-23T18:46:29.865Z,24.08
2022-09-23T18:49:16.591Z,24.16
2022-09-23T18:51:55.150Z,24.37
2022-09-23T18:54:23.630Z,24.55
2022-09-23T18:56:53.543Z,24.68
2022-09-23T18:59:24.701Z,24.82
2022-09-23T19:01:52.832Z,24.98
2022-09-23T19:04:21.663Z,25.13
2022-09-23T19:06:50.686Z,25.22
2022-09-23T19:09:19.820Z,25.34
2022-09-23T19:11:47.784Z,25.36
2022-09-23T19:14:15.779Z,25.46
2022-09-23T19:16:43.793Z,25.65
2022-09-23T19:19:11.919Z,25.68
2022-09-23T19:21:39.850Z,25.76
2022-09-23T19:24:08.544Z,25.87
2022-09-23T19:26:38.397Z,25.96
2022-09-23T19:29:09.078Z,26.05
2022-09-23T19:31:41.392Z,26.12
2022-09-23T19:34:13.246Z,26.25
2022-09-23T19:36:43.624Z,26.37
2022-09-23T19:39:22.643Z,26.56
2022-09-23T19:41:51.304Z,26.73
2022-09-23T19:44:20.820Z,26.83
2022-09-23T19:46:55.721Z,26.90
2022-09-23T19:49:25.554Z,27.01
2022-09-23T19:51:56.433Z,27.16
2022-09-23T19:54:27.675Z,27.26
2022-09-23T19:56:56.063Z,27.39
2022-09-23T19:59:24.079Z,27.46
2022-09-23T20:01:51.979Z,27.45
2022-09-23T20:04:19.874Z,27.64
2022-09-23T20:06:50.504Z,27.75
2022-09-23T20:09:18.524Z,27.92
2022-09-23T20:11:46.473Z,28.05
2022-09-23T20:14:14.749Z,28.10
2022-09-23T20:16:42.888Z,28.20
2022-09-23T20:19:10.818Z,28.26
2022-09-23T20:21:38.979Z,28.41
2022-09-23T20:24:08.055Z,28.51
2022-09-23T20:26:54.802Z,28.54
2022-09-23T20:29:24.938Z,28.64
2022-09-23T20:31:52.851Z,28.70
2022-09-23T20:34:22.115Z,28.79
2022-09-23T20:36:50.018Z,28.92
2022-09-23T20:39:17.958Z,29.04
2022-09-23T20:41:45.864Z,29.07
2022-09-23T20:44:13.894Z,29.17
2022-09-23T20:46:47.916Z,29.25
2022-09-23T20:49:17.676Z,29.34
2022-09-23T20:51:45.818Z,29.42
2022-09-23T20:54:13.704Z,29.49
2022-09-23T20:56:41.678Z,29.53
2022-09-23T20:59:10.504Z,29.52
2022-09-23T21:01:38.433Z,29.55
2022-09-23T21:04:06.706Z,29.61
2022-09-23T21:06:37.873Z,29.79
2022-09-23T21:09:06.981Z,29.95
2022-09-23T21:11:35.426Z,30.09
2022-09-23T21:14:03.599Z,30.28
2022-09-23T21:16:31.881Z,30.32
2022-09-23T21:19:00.423Z,30.45
2022-09-23T21:21:28.428Z,30.66
2022-09-23T21:24:07.075Z,30.88
2022-09-23T21:26:48.113Z,31.08
2022-09-23T21:29:16.108Z,31.37
2022-09-23T21:31:44.076Z,31.53
2022-09-23T21:34:12.597Z,31.58
2022-09-23T21:36:43.778Z,31.69
2022-09-23T21:39:12.398Z,31.81
2022-09-23T21:41:41.063Z,31.94
2022-09-23T21:44:09.359Z,32.00
2022-09-23T21:46:37.547Z,32.19
2022-09-23T21:49:05.863Z,32.32
2022-09-23T21:51:41.445Z,32.49
2022-09-23T21:54:12.910Z,32.63
2022-09-23T21:56:40.904Z,32.69
2022-09-23T21:59:09.064Z,32.72
2022-09-23T22:01:40.063Z,32.79
2022-09-23T22:04:14.219Z,32.86
2022-09-23T22:06:42.508Z,32.87
2022-09-23T22:09:13.076Z,32.86
2022-09-23T22:12:00.146Z,32.92
2022-09-23T22:14:28.219Z,32.95
2022-09-23T22:16:58.360Z,32.98
2022-09-23T22:19:27.763Z,32.99
2022-09-23T22:21:57.058Z,32.98
2022-09-23T22:24:25.058Z,32.97
2022-09-23T22:26:53.018Z,32.86
2022-09-23T22:29:39.623Z,32.88
2022-09-23T22:32:29.545Z,33.03
2022-09-23T22:34:58.177Z,33.11
2022-09-23T22:37:28.118Z,33.04
2022-09-23T22:39:56.104Z,32.80
2022-09-23T22:42:24.150Z,32.55
2022-09-23T22:44:52.114Z,32.31
2022-09-23T22:47:21.019Z,32.17
2022-09-23T22:49:49.397Z,31.84
2022-09-23T22:52:21.878Z,31.49
2022-09-23T22:54:49.863Z,31.20
2022-09-23T22:57:18.018Z,31.01
2022-09-23T22:59:48.922Z,30.84
2022-09-23T23:02:18.803Z,30.67
2022-09-23T23:04:50.293Z,30.53
2022-09-23T23:07:21.865Z,30.40
2022-09-23T23:09:53.394Z,30.26
2022-09-23T23:12:21.596Z,30.18
2022-09-23T23:14:50.270Z,30.05
2022-09-23T23:17:18.350Z,29.97
2022-09-23T23:19:46.299Z,29.91
2022-09-23T23:22:14.200Z,29.84
2022-09-23T23:24:42.147Z,29.76
2022-09-23T23:27:10.143Z,29.69
2022-09-23T23:29:38.073Z,29.66
2022-09-23T23:32:06.973Z,29.60
2022-09-23T23:34:34.989Z,29.59
2022-09-23T23:37:02.978Z,29.58
2022-09-23T23:39:31.497Z,29.56
2022-09-23T23:41:59.477Z,29.51
2022-09-23T23:44:27.942Z,29.46
2022-09-23T23:46:56.019Z,29.42
2022-09-23T23:49:24.085Z,29.47
2022-09-23T23:51:52.078Z,29.47
2022-09-23T23:54:20.104Z,29.47
2022-09-23T23:56:48.116Z,29.44
2022-09-23T23:59:16.281Z,29.41
